createdAt,value
2022-08-26T00:01:56.739Z,51.33
2022-08-26T00:04:20.333Z,51.18
2022-08-26T00:06:46.156Z,51.40
2022-08-26T00:09:09.907Z,51.43
2022-08-26T00:11:33.224Z,51.39
2022-08-26T00:13:58.047Z,51.36
2022-08-26T00:16:21.660Z,51.59
2022-08-26T00:18:45.001Z,51.77
2022-08-26T00:21:08.554Z,51.85
2022-08-26T00:23:31.839Z,51.45
2022-08-26T00:25:55.383Z,51.43
2022-08-26T00:28:20.160Z,51.77
2022-08-26T00:30:48.198Z,52.13
2022-08-26T00:33:14.868Z,51.75
2022-08-26T00:35:38.160Z,51.38
2022-08-26T00:38:07.553Z,51.90
2022-08-26T00:40:32.676Z,51.58
2022-08-26T00:42:56.537Z,51.44
2022-08-26T00:45:19.782Z,51.28
2022-08-26T00:47:47.310Z,51.29
2022-08-26T00:50:13.118Z,51.21
2022-08-26T00:52:38.858Z,50.99
2022-08-26T00:55:04.510Z,50.51
2022-08-26T00:57:27.947Z,51.02
2022-08-26T00:59:54.397Z,50.71
2022-08-26T01:02:20.787Z,50.70
2022-08-26T01:04:46.367Z,50.75
2022-08-26T01:07:10.791Z,50.52
2022-08-26T01:09:34.145Z,50.96
2022-08-26T01:11:58.531Z,50.60
2022-08-26T01:14:22.254Z,50.58
2022-08-26T01:16:45.556Z,50.47
2022-08-26T01:19:14.327Z,50.50
2022-08-26T01:21:42.186Z,50.84
2022-08-26T01:24:07.271Z,50.50
2022-08-26T01:26:37.518Z,49.72
2022-08-26T01:29:01.414Z,50.01
2022-08-26T01:31:27.047Z,49.79
2022-08-26T01:33:53.989Z,49.44
2022-08-26T01:36:17.398Z,49.50
2022-08-26T01:38:41.107Z,49.54
2022-08-26T01:41:16.181Z,49.31
2022-08-26T01:43:44.326Z,49.38
2022-08-26T01:46:07.668Z,48.60
2022-08-26T01:48:35.320Z,48.66
2022-08-26T01:50:58.722Z,48.82
2022-08-26T01:53:22.656Z,48.32
2022-08-26T01:55:47.152Z,47.98
2022-08-26T01:58:17.665Z,48.32
2022-08-26T02:00:42.185Z,47.99
2022-08-26T02:03:21.632Z,47.99
2022-08-26T02:05:51.380Z,48.07
2022-08-26T02:08:15.184Z,47.42
2022-08-26T02:10:47.371Z,47.33
2022-08-26T02:13:10.585Z,47.47
2022-08-26T02:15:35.357Z,46.86
2022-08-26T02:17:58.901Z,46.64
2022-08-26T02:20:22.342Z,47.27
2022-08-26T02:22:47.209Z,46.85
2022-08-26T02:25:13.226Z,46.25
2022-08-26T02:27:36.638Z,46.27
2022-08-26T02:30:02.243Z,46.57
2022-08-26T02:32:27.931Z,46.40
2022-08-26T02:34:51.235Z,46.61
2022-08-26T02:37:15.289Z,46.41
2022-08-26T02:39:42.057Z,46.33
2022-08-26T02:42:05.403Z,46.64
2022-08-26T02:44:28.878Z,46.56
2022-08-26T02:46:52.880Z,46.81
2022-08-26T02:49:19.482Z,47.35
2022-08-26T02:51:43.577Z,47.37
2022-08-26T02:54:06.981Z,47.28
2022-08-26T02:56:30.489Z,47.46
2022-08-26T02:58:53.751Z,46.95
2022-08-26T03:01:22.255Z,47.43
2022-08-26T03:03:45.616Z,46.96
2022-08-26T03:06:15.473Z,46.57
2022-08-26T03:08:39.352Z,46.68
2022-08-26T03:11:03.088Z,46.27
2022-08-26T03:13:26.491Z,46.14
2022-08-26T03:15:49.917Z,45.58
2022-08-26T03:18:13.374Z,46.08
2022-08-26T03:20:36.665Z,45.21
2022-08-26T03:23:01.434Z,45.49
2022-08-26T03:25:25.789Z,45.56
2022-08-26T03:27:49.181Z,45.68
2022-08-26T03:30:30.649Z,45.40
2022-08-26T03:32:54.051Z,45.24
2022-08-26T03:35:17.374Z,45.86
2022-08-26T03:37:40.913Z,45.77
2022-08-26T03:40:06.338Z,45.62
2022-08-26T03:42:29.744Z,45.54
2022-08-26T03:44:53.119Z,45.39
2022-08-26T03:47:17.254Z,44.77
2022-08-26T03:49:40.810Z,44.64
2022-08-26T03:52:04.745Z,44.02
2022-08-26T03:54:29.006Z,44.71
2022-08-26T03:56:54.094Z,43.89
2022-08-26T03:59:17.407Z,44.26
2022-08-26T04:01:41.041Z,43.21
2022-08-26T04:04:05.078Z,42.70
2022-08-26T04:06:30.901Z,42.58
2022-08-26T04:08:54.890Z,42.79
2022-08-26T04:11:19.547Z,43.32
2022-08-26T04:13:44.342Z,43.04
2022-08-26T04:16:08.057Z,42.88
2022-08-26T04:18:36.962Z,42.97
2022-08-26T04:21:00.615Z,42.54
2022-08-26T04:23:25.233Z,42.78
2022-08-26T04:25:48.762Z,42.60
2022-08-26T04:28:14.873Z,42.63
2022-08-26T04:30:39.907Z,42.99
2022-08-26T04:33:13.060Z,42.70
2022-08-26T04:35:37.176Z,41.95
2022-08-26T04:38:00.958Z,41.80
2022-08-26T04:40:24.674Z,41.61
2022-08-26T04:42:49.426Z,41.39
2022-08-26T04:45:14.149Z,41.06
2022-08-26T04:47:38.952Z,41.44
2022-08-26T04:50:02.273Z,41.39
2022-08-26T04:52:26.587Z,41.67
2022-08-26T04:54:51.541Z,41.82
2022-08-26T04:57:14.840Z,41.94
2022-08-26T04:59:39.551Z,41.88
2022-08-26T05:02:03.835Z,42.02
2022-08-26T05:04:30.614Z,41.71
2022-08-26T05:06:56.746Z,42.02
2022-08-26T05:09:23.089Z,41.83
2022-08-26T05:11:48.480Z,41.80
2022-08-26T05:14:15.231Z,41.59
2022-08-26T05:16:38.962Z,41.85
2022-08-26T05:19:04.430Z,41.88
2022-08-26T05:21:29.644Z,41.54
2022-08-26T05:23:54.807Z,41.68
2022-08-26T05:26:23.039Z,41.50
2022-08-26T05:28:46.803Z,41.89
2022-08-26T05:31:15.535Z,41.77
2022-08-26T05:33:41.408Z,41.53
2022-08-26T05:36:08.157Z,41.10
2022-08-26T05:38:34.844Z,41.20
2022-08-26T05:40:59.683Z,40.27
2022-08-26T05:43:25.022Z,40.88
2022-08-26T05:45:49.513Z,40.96
2022-08-26T05:48:13.496Z,40.42
2022-08-26T05:50:39.820Z,40.18
2022-08-26T05:53:03.201Z,40.47
2022-08-26T05:55:29.978Z,40.49
2022-08-26T05:57:53.608Z,40.42
2022-08-26T06:00:17.322Z,40.59
2022-08-26T06:02:40.819Z,40.16
2022-08-26T06:05:04.260Z,40.30
2022-08-26T06:07:44.833Z,40.18
2022-08-26T06:10:30.866Z,39.97
2022-08-26T06:12:53.721Z,39.94
2022-08-26T06:15:17.529Z,40.04
2022-08-26T06:17:40.906Z,40.11
2022-08-26T06:20:04.683Z,39.78
2022-08-26T06:22:45.906Z,39.83
2022-08-26T06:25:26.972Z,40.14
2022-08-26T06:27:50.951Z,40.63
2022-08-26T06:30:15.908Z,40.56
2022-08-26T06:32:40.179Z,40.43
2022-08-26T06:35:03.465Z,40.60
2022-08-26T06:37:26.991Z,40.84
2022-08-26T06:39:51.226Z,40.84
2022-08-26T06:42:14.417Z,40.96
2022-08-26T06:44:38.271Z,41.11
2022-08-26T06:47:06.233Z,40.97
2022-08-26T06:49:29.609Z,40.96
2022-08-26T06:51:52.912Z,40.97
2022-08-26T06:54:16.319Z,40.90
2022-08-26T06:56:40.978Z,41.06
2022-08-26T06:59:04.658Z,40.92
2022-08-26T07:01:33.052Z,40.39
2022-08-26T07:03:58.463Z,40.57
2022-08-26T07:06:21.723Z,40.84
2022-08-26T07:08:45.150Z,40.41
2022-08-26T07:11:08.687Z,40.51
2022-08-26T07:13:32.035Z,40.74
2022-08-26T07:15:58.014Z,40.74
2022-08-26T07:18:26.348Z,41.08
2022-08-26T07:20:51.036Z,40.76
2022-08-26T07:23:14.376Z,40.72
2022-08-26T07:25:40.953Z,40.83
2022-08-26T07:28:05.489Z,40.96
2022-08-26T07:30:30.071Z,40.91
2022-08-26T07:32:53.362Z,40.68
2022-08-26T07:35:16.987Z,40.64
2022-08-26T07:37:41.935Z,40.64
2022-08-26T07:40:06.118Z,40.83
2022-08-26T07:42:30.256Z,40.78
2022-08-26T07:44:53.626Z,40.93
2022-08-26T07:47:24.686Z,40.97
2022-08-26T07:49:48.609Z,40.79
2022-08-26T07:52:16.277Z,40.90
2022-08-26T07:54:47.397Z,40.61
2022-08-26T07:57:10.680Z,39.98
2022-08-26T07:59:34.141Z,39.90
2022-08-26T08:01:59.227Z,39.82
2022-08-26T08:04:26.390Z,40.47
2022-08-26T08:06:50.297Z,40.28
2022-08-26T08:09:14.206Z,40.45
2022-08-26T08:11:41.459Z,40.35
2022-08-26T08:14:08.450Z,40.23
2022-08-26T08:16:32.314Z,40.49
2022-08-26T08:18:56.670Z,40.36
2022-08-26T08:21:23.901Z,40.26
2022-08-26T08:23:47.677Z,40.47
2022-08-26T08:26:11.659Z,40.61
2022-08-26T08:28:36.362Z,40.67
2022-08-26T08:30:59.738Z,40.85
2022-08-26T08:33:23.238Z,40.67
2022-08-26T08:35:46.844Z,40.50
2022-08-26T08:38:10.269Z,40.48
2022-08-26T08:40:33.900Z,40.13
2022-08-26T08:42:59.741Z,40.38
2022-08-26T08:45:36.283Z,40.53
2022-08-26T08:48:01.963Z,40.74
2022-08-26T08:50:27.699Z,40.60
2022-08-26T08:52:53.570Z,39.66
2022-08-26T08:55:18.243Z,40.30
2022-08-26T08:57:48.184Z,40.10
2022-08-26T09:00:18.222Z,40.58
2022-08-26T09:02:46.239Z,40.55
2022-08-26T09:05:14.992Z,40.80
2022-08-26T09:07:39.573Z,40.69
2022-08-26T09:10:05.477Z,40.71
2022-08-26T09:12:31.561Z,40.53
2022-08-26T09:14:57.737Z,40.71
2022-08-26T09:17:27.930Z,40.79
2022-08-26T09:19:53.857Z,40.55
2022-08-26T09:22:29.215Z,40.88
2022-08-26T09:24:52.635Z,40.63
2022-08-26T09:27:21.762Z,40.48
2022-08-26T09:29:45.557Z,40.39
2022-08-26T09:32:20.292Z,40.42
2022-08-26T09:34:56.424Z,40.48
2022-08-26T09:37:20.893Z,40.61
2022-08-26T09:39:44.309Z,40.83
2022-08-26T09:42:09.849Z,40.92
2022-08-26T09:44:33.260Z,40.86
2022-08-26T09:46:58.767Z,40.85
2022-08-26T09:49:35.872Z,40.82
2022-08-26T09:52:10.580Z,40.54
2022-08-26T09:54:34.205Z,40.46
2022-08-26T09:57:00.697Z,40.43
2022-08-26T09:59:30.858Z,40.54
2022-08-26T10:01:55.030Z,40.57
2022-08-26T10:04:22.496Z,40.53
2022-08-26T10:06:56.958Z,40.24
2022-08-26T10:09:22.704Z,40.73
2022-08-26T10:11:47.940Z,40.81
2022-08-26T10:14:14.994Z,40.94
2022-08-26T10:16:41.290Z,41.07
2022-08-26T10:19:06.417Z,41.02
2022-08-26T10:21:31.368Z,41.33
2022-08-26T10:23:56.071Z,41.17
2022-08-26T10:26:22.790Z,41.44
2022-08-26T10:28:49.585Z,41.40
2022-08-26T10:31:28.738Z,41.71
2022-08-26T10:33:56.662Z,41.57
2022-08-26T10:37:05.076Z,41.66
2022-08-26T10:39:26.754Z,41.39
2022-08-26T10:41:52.858Z,41.62
2022-08-26T10:44:16.623Z,41.48
2022-08-26T10:46:41.966Z,41.65
2022-08-26T10:49:08.121Z,41.61
2022-08-26T10:51:35.689Z,41.69
2022-08-26T10:54:00.337Z,41.71
2022-08-26T10:56:29.167Z,41.62
2022-08-26T10:59:00.057Z,42.03
2022-08-26T11:01:44.041Z,41.77
2022-08-26T11:04:17.513Z,41.80
2022-08-26T11:06:41.861Z,41.98
2022-08-26T11:09:06.067Z,42.16
2022-08-26T11:11:46.999Z,42.35
2022-08-26T11:14:11.895Z,42.48
2022-08-26T11:16:42.984Z,42.22
2022-08-26T11:19:07.686Z,42.41
2022-08-26T11:21:50.816Z,42.31
2022-08-26T11:25:01.118Z,42.32
2022-08-26T11:27:54.595Z,42.53
2022-08-26T11:30:56.925Z,42.63
2022-08-26T11:33:48.940Z,42.36
2022-08-26T11:36:41.136Z,42.25
2022-08-26T11:39:05.242Z,42.23
2022-08-26T11:41:31.384Z,42.32
2022-08-26T11:43:55.458Z,42.41
2022-08-26T11:46:26.866Z,42.47
2022-08-26T11:48:50.179Z,42.26
2022-08-26T11:51:14.725Z,42.29
2022-08-26T11:53:39.253Z,42.44
2022-08-26T11:56:03.681Z,42.30
2022-08-26T11:58:27.974Z,42.41
2022-08-26T12:00:52.750Z,42.44
2022-08-26T12:03:20.132Z,42.49
2022-08-26T12:05:47.881Z,42.59
2022-08-26T12:08:13.064Z,42.33
2022-08-26T12:10:36.554Z,42.13
2022-08-26T12:13:00.839Z,42.44
2022-08-26T12:15:24.237Z,42.41
2022-08-26T12:17:52.929Z,42.37
2022-08-26T12:20:45.863Z,42.50
2022-08-26T12:23:09.334Z,42.32
2022-08-26T12:25:36.161Z,42.41
2022-08-26T12:28:04.738Z,42.62
2022-08-26T12:30:28.502Z,42.60
2022-08-26T12:32:58.759Z,42.59
2022-08-26T12:35:23.901Z,42.79
2022-08-26T12:37:49.836Z,42.92
2022-08-26T12:40:28.907Z,42.93
2022-08-26T12:42:52.413Z,42.59
2022-08-26T12:45:16.293Z,41.77
2022-08-26T12:47:43.454Z,41.44
2022-08-26T12:50:09.157Z,41.66
2022-08-26T12:52:35.719Z,41.79
2022-08-26T12:55:00.292Z,40.91
2022-08-26T12:57:27.409Z,40.70
2022-08-26T12:59:50.706Z,38.50
2022-08-26T13:02:37.752Z,37.90
2022-08-26T13:05:01.185Z,37.31
2022-08-26T13:07:25.894Z,37.32
2022-08-26T13:09:51.358Z,36.90
2022-08-26T13:12:23.571Z,37.20
2022-08-26T13:14:47.177Z,37.25
2022-08-26T13:17:10.516Z,37.85
2022-08-26T13:19:33.777Z,36.93
2022-08-26T13:21:57.878Z,37.51
2022-08-26T13:24:23.143Z,37.05
2022-08-26T13:26:49.043Z,36.87
2022-08-26T13:29:12.431Z,37.04
2022-08-26T13:31:35.830Z,37.14
2022-08-26T13:34:00.412Z,36.91
2022-08-26T13:36:24.260Z,36.63
2022-08-26T13:38:48.451Z,36.68
2022-08-26T13:41:15.422Z,36.84
2022-08-26T13:43:41.426Z,36.49
2022-08-26T13:46:04.881Z,36.75
2022-08-26T13:48:28.210Z,37.18
2022-08-26T13:50:52.609Z,36.90
2022-08-26T13:53:15.715Z,37.06
2022-08-26T13:55:39.049Z,37.00
2022-08-26T13:58:02.322Z,36.93
2022-08-26T14:00:27.171Z,36.48
2022-08-26T14:02:50.569Z,36.32
2022-08-26T14:05:14.074Z,36.24
2022-08-26T14:07:37.380Z,36.39
2022-08-26T14:10:01.358Z,36.10
2022-08-26T14:12:24.945Z,36.25
2022-08-26T14:14:48.332Z,36.26
2022-08-26T14:17:13.456Z,36.48
2022-08-26T14:19:36.725Z,36.11
2022-08-26T14:22:00.962Z,35.78
2022-08-26T14:24:24.414Z,35.98
2022-08-26T14:26:48.584Z,36.22
2022-08-26T14:29:14.710Z,36.02
2022-08-26T14:31:39.916Z,35.88
2022-08-26T14:34:05.768Z,36.04
2022-08-26T14:36:29.219Z,36.08
2022-08-26T14:38:52.491Z,35.96
2022-08-26T14:41:16.446Z,36.14
2022-08-26T14:43:40.607Z,35.79
2022-08-26T14:46:03.881Z,36.16
2022-08-26T14:48:27.243Z,35.86
2022-08-26T14:50:51.970Z,35.85
2022-08-26T14:53:32.861Z,35.85
2022-08-26T14:55:56.175Z,36.02
2022-08-26T14:58:19.401Z,36.14
2022-08-26T15:00:42.619Z,36.48
2022-08-26T15:03:06.143Z,36.97
2022-08-26T15:05:29.650Z,36.96
2022-08-26T15:07:54.302Z,37.13
2022-08-26T15:10:18.106Z,37.06
2022-08-26T15:12:41.954Z,37.13
2022-08-26T15:15:05.918Z,37.41
2022-08-26T15:17:29.911Z,37.51
2022-08-26T15:19:53.212Z,37.41
2022-08-26T15:22:16.537Z,37.58
2022-08-26T15:24:41.150Z,37.67
2022-08-26T15:27:04.715Z,37.65
2022-08-26T15:29:27.950Z,37.70
2022-08-26T15:31:51.337Z,37.86
2022-08-26T15:34:16.986Z,37.75
2022-08-26T15:36:42.689Z,37.75
2022-08-26T15:39:06.975Z,37.66
2022-08-26T15:41:34.804Z,37.74
2022-08-26T15:43:58.460Z,37.90
2022-08-26T15:46:21.735Z,37.96
2022-08-26T15:48:45.029Z,38.07
2022-08-26T15:51:08.379Z,37.98
2022-08-26T15:53:32.586Z,37.94
2022-08-26T15:55:56.313Z,37.77
2022-08-26T15:58:21.065Z,38.17
2022-08-26T16:00:44.862Z,37.68
2022-08-26T16:03:08.109Z,37.21
2022-08-26T16:05:31.451Z,37.21
2022-08-26T16:07:55.067Z,37.02
2022-08-26T16:10:18.694Z,37.10
2022-08-26T16:12:42.158Z,36.51
2022-08-26T16:15:07.968Z,36.00
2022-08-26T16:17:31.189Z,35.91
2022-08-26T16:19:54.486Z,35.92
2022-08-26T16:22:17.805Z,35.97
2022-08-26T16:24:41.023Z,36.04
2022-08-26T16:27:04.435Z,35.98
2022-08-26T16:29:27.686Z,36.50
2022-08-26T16:31:53.364Z,35.98
2022-08-26T16:34:16.623Z,36.39
2022-08-26T16:36:39.970Z,36.60
2022-08-26T16:39:03.473Z,36.54
2022-08-26T16:41:31.357Z,36.28
2022-08-26T16:43:54.706Z,36.36
2022-08-26T16:46:18.752Z,36.70
2022-08-26T16:48:43.746Z,36.79
2022-08-26T16:51:07.330Z,36.37
2022-08-26T16:53:31.512Z,36.73
2022-08-26T16:55:55.188Z,36.95
2022-08-26T16:58:18.424Z,37.27
2022-08-26T17:00:41.813Z,37.41
2022-08-26T17:03:05.119Z,38.17
2022-08-26T17:05:29.907Z,37.94
2022-08-26T17:07:53.421Z,38.24
2022-08-26T17:10:16.679Z,38.69
2022-08-26T17:12:39.989Z,39.19
2022-08-26T17:15:03.754Z,39.96
2022-08-26T17:17:27.129Z,39.92
2022-08-26T17:19:50.345Z,40.77
2022-08-26T17:22:14.969Z,41.56
2022-08-26T17:24:38.226Z,45.41
2022-08-26T17:27:01.616Z,49.11
2022-08-26T17:29:24.818Z,47.66
2022-08-26T17:31:48.040Z,49.28
2022-08-26T17:34:11.385Z,49.60
2022-08-26T17:36:34.657Z,48.13
2022-08-26T17:38:59.577Z,49.77
2022-08-26T17:41:22.843Z,50.21
2022-08-26T17:43:46.227Z,50.11
2022-08-26T17:46:10.676Z,50.99
2022-08-26T17:48:34.014Z,52.48
2022-08-26T17:50:57.481Z,50.93
2022-08-26T17:53:20.769Z,50.50
2022-08-26T17:55:45.803Z,52.21
2022-08-26T17:58:09.223Z,51.41
2022-08-26T18:00:33.427Z,50.95
2022-08-26T18:02:56.803Z,50.67
2022-08-26T18:05:20.070Z,52.79
2022-08-26T18:07:43.993Z,52.95
2022-08-26T18:10:12.956Z,54.33
2022-08-26T18:12:38.010Z,53.53
2022-08-26T18:15:01.628Z,53.45
2022-08-26T18:17:24.996Z,52.89
2022-08-26T18:19:49.049Z,53.96
2022-08-26T18:22:12.301Z,53.29
2022-08-26T18:24:39.101Z,53.58
2022-08-26T18:27:02.346Z,54.24
2022-08-26T18:29:30.138Z,53.63
2022-08-26T18:31:53.444Z,53.96
2022-08-26T18:34:17.006Z,53.47
2022-08-26T18:36:40.928Z,55.42
2022-08-26T18:39:04.720Z,56.08
2022-08-26T18:41:29.399Z,53.95
2022-08-26T18:43:53.210Z,54.42
2022-08-26T18:46:17.954Z,53.75
2022-08-26T18:48:41.614Z,54.28
2022-08-26T18:51:05.170Z,54.67
2022-08-26T18:53:28.503Z,54.56
2022-08-26T18:55:52.064Z,54.15
2022-08-26T18:58:16.445Z,53.33
2022-08-26T19:00:39.534Z,53.16
2022-08-26T19:03:04.369Z,53.05
2022-08-26T19:05:31.510Z,53.57
2022-08-26T19:07:56.514Z,55.43
2022-08-26T19:10:19.882Z,55.94
2022-08-26T19:12:43.882Z,56.01
2022-08-26T19:15:08.312Z,55.15
2022-08-26T19:17:31.332Z,55.43
2022-08-26T19:19:55.974Z,55.88
2022-08-26T19:22:19.924Z,56.41
2022-08-26T19:24:43.185Z,56.84
2022-08-26T19:27:06.670Z,58.13
2022-08-26T19:29:31.446Z,58.15
2022-08-26T19:31:54.722Z,57.37
2022-08-26T19:34:20.998Z,57.93
2022-08-26T19:36:46.829Z,57.94
2022-08-26T19:39:10.171Z,58.70
2022-08-26T19:41:37.482Z,59.04
2022-08-26T19:44:01.817Z,59.33
2022-08-26T19:46:29.455Z,59.40
2022-08-26T19:48:55.719Z,59.81
2022-08-26T19:51:20.453Z,60.01
2022-08-26T19:53:45.283Z,59.63
2022-08-26T19:56:08.555Z,58.85
2022-08-26T19:58:31.827Z,58.73
2022-08-26T20:00:55.185Z,58.36
2022-08-26T20:03:18.506Z,58.33
2022-08-26T20:05:41.858Z,58.15
2022-08-26T20:08:05.391Z,59.46
2022-08-26T20:10:30.033Z,59.51
2022-08-26T20:12:53.448Z,59.93
2022-08-26T20:15:16.902Z,59.51
2022-08-26T20:17:40.171Z,59.45
2022-08-26T20:20:32.612Z,59.84
2022-08-26T20:22:57.220Z,60.04
2022-08-26T20:25:21.001Z,59.82
2022-08-26T20:27:46.495Z,59.74
2022-08-26T20:30:10.755Z,59.60
2022-08-26T20:32:35.682Z,58.55
2022-08-26T20:34:59.302Z,57.93
2022-08-26T20:37:22.608Z,57.45
2022-08-26T20:39:46.158Z,57.23
2022-08-26T20:42:19.899Z,56.83
2022-08-26T20:44:47.371Z,56.97
2022-08-26T20:47:19.228Z,57.24
2022-08-26T20:49:42.270Z,57.61
2022-08-26T20:52:05.823Z,58.03
2022-08-26T20:54:29.206Z,58.68
2022-08-26T20:56:52.574Z,58.44
2022-08-26T20:59:16.576Z,58.66
2022-08-26T21:01:42.437Z,57.86
2022-08-26T21:04:06.943Z,57.44
2022-08-26T21:06:30.500Z,58.17
2022-08-26T21:08:55.147Z,58.69
2022-08-26T21:11:18.432Z,59.85
2022-08-26T21:14:03.482Z,60.19
2022-08-26T21:16:25.090Z,60.05
2022-08-26T21:18:49.957Z,60.03
2022-08-26T21:21:13.292Z,60.07
2022-08-26T21:23:36.673Z,60.28
2022-08-26T21:26:02.670Z,60.46
2022-08-26T21:28:25.840Z,60.05
2022-08-26T21:30:49.153Z,60.08
2022-08-26T21:33:12.341Z,60.37
2022-08-26T21:35:37.029Z,59.82
2022-08-26T21:38:00.203Z,59.85
2022-08-26T21:40:23.448Z,60.37
2022-08-26T21:42:46.690Z,59.92
2022-08-26T21:45:11.771Z,59.75
2022-08-26T21:47:35.047Z,59.12
2022-08-26T21:49:58.261Z,58.58
2022-08-26T21:52:22.896Z,58.29
2022-08-26T21:54:49.158Z,58.25
2022-08-26T21:57:12.846Z,59.51
2022-08-26T21:59:36.114Z,59.27
2022-08-26T22:01:59.371Z,58.74
2022-08-26T22:04:22.814Z,58.79
2022-08-26T22:06:47.734Z,59.14
2022-08-26T22:09:12.358Z,59.46
2022-08-26T22:11:35.548Z,59.55
2022-08-26T22:13:58.782Z,59.28
2022-08-26T22:16:22.335Z,59.32
2022-08-26T22:18:45.849Z,59.09
2022-08-26T22:21:10.170Z,58.91
2022-08-26T22:23:33.431Z,59.46
2022-08-26T22:25:58.495Z,58.50
2022-08-26T22:28:21.830Z,58.58
2022-08-26T22:30:45.204Z,58.16
2022-08-26T22:33:08.407Z,57.43
2022-08-26T22:35:31.790Z,57.34
2022-08-26T22:37:55.033Z,56.98
2022-08-26T22:40:20.559Z,56.83
2022-08-26T22:42:57.987Z,57.71
2022-08-26T22:45:23.656Z,58.50
2022-08-26T22:47:46.883Z,58.69
2022-08-26T22:50:10.414Z,58.81
2022-08-26T22:52:33.605Z,58.89
2022-08-26T22:54:56.835Z,59.27
2022-08-26T22:57:20.149Z,59.32
2022-08-26T22:59:44.749Z,59.90
2022-08-26T23:02:08.094Z,59.83
2022-08-26T23:04:35.231Z,59.65
2022-08-26T23:06:58.967Z,59.49
2022-08-26T23:09:22.289Z,59.17
2022-08-26T23:11:46.318Z,59.81
2022-08-26T23:14:09.656Z,59.70
2022-08-26T23:16:39.107Z,59.52
2022-08-26T23:19:02.685Z,59.24
2022-08-26T23:21:25.954Z,58.74
2022-08-26T23:23:49.155Z,58.97
2022-08-26T23:26:16.713Z,58.52
2022-08-26T23:28:41.040Z,58.53
2022-08-26T23:31:04.246Z,58.02
2022-08-26T23:33:48.813Z,57.34
2022-08-26T23:36:15.787Z,57.62
2022-08-26T23:38:41.661Z,57.72
2022-08-26T23:41:04.874Z,57.97
2022-08-26T23:43:29.500Z,58.19
2022-08-26T23:45:52.753Z,57.81
2022-08-26T23:48:16.043Z,57.52
2022-08-26T23:51:01.529Z,57.81
2022-08-26T23:53:24.806Z,57.58
2022-08-26T23:55:49.214Z,57.13
2022-08-26T23:58:12.498Z,57.37
